Wunstorf Airport ETNW

Flugplatz Daten

Name: Wunstorf Airport

Ident: ETNW

Lat: 52,45729828

Long: 9,4271698

Platzhöhe: 187 ft

IataCode:

City:

Metar

2022/08/14 05:20
ETNW 140520Z 11005KT 9999 FEW120 20/16 Q1012 BLU+

Taf

2022/08/13 23:32
TAF ETNW 132202Z 1323/1423 08005KT 9999 NSW SCT060 SCT100
BECMG 1408/1410 11010KT 9999 NSW SCT040 SCT100 PROB30 1412/1418 13015G25KT 4000 SHRA BKN030CB BY ETGL
Gewünschte Webcam nicht vorhanden? Dann fügen Sie eine hinzu. Sie wird dann so schnell wie möglich freigeschaltet
Url: Title: